sensor_id;sensor_type;location;lat;lon;timestamp;pressure;altitude;pressure_sealevel;temperature;humidity
13690;BME280;6917;52.194;9.894;2022-07-23T00:00:56;100672.25;;;15.07;100.00
13690;BME280;6917;52.194;9.894;2022-07-23T00:03:21;100670.28;;;15.08;100.00
13690;BME280;6917;52.194;9.894;2022-07-23T00:05:46;100666.19;;;15.14;100.00
13690;BME280;6917;52.194;9.894;2022-07-23T00:08:12;100657.41;;;15.21;100.00
13690;BME280;6917;52.194;9.894;2022-07-23T00:10:37;100658.66;;;15.23;100.00
13690;BME280;6917;52.194;9.894;2022-07-23T00:13:03;100666.00;;;15.19;100.00
13690;BME280;6917;52.194;9.894;2022-07-23T00:15:28;100668.94;;;15.14;100.00
13690;BME280;6917;52.194;9.894;2022-07-23T00:17:54;100660.00;;;15.17;100.00
13690;BME280;6917;52.194;9.894;2022-07-23T00:20:19;100655.00;;;15.19;100.00
13690;BME280;6917;52.194;9.894;2022-07-23T00:22:50;100655.59;;;15.25;100.00
13690;BME280;6917;52.194;9.894;2022-07-23T00:25:15;100658.78;;;15.27;100.00
13690;BME280;6917;52.194;9.894;2022-07-23T00:27:41;100654.22;;;15.31;100.00
13690;BME280;6917;52.194;9.894;2022-07-23T00:30:07;100657.25;;;15.38;100.00
13690;BME280;6917;52.194;9.894;2022-07-23T00:32:51;100666.88;;;15.44;100.00
13690;BME280;6917;52.194;9.894;2022-07-23T00:35:20;100669.66;;;15.44;100.00
13690;BME280;6917;52.194;9.894;2022-07-23T00:37:45;100660.25;;;15.45;100.00
13690;BME280;6917;52.194;9.894;2022-07-23T00:40:11;100656.84;;;15.48;100.00
13690;BME280;6917;52.194;9.894;2022-07-23T00:42:37;100660.03;;;15.50;100.00
13690;BME280;6917;52.194;9.894;2022-07-23T00:45:03;100659.09;;;15.46;100.00
13690;BME280;6917;52.194;9.894;2022-07-23T00:47:29;100665.38;;;15.34;100.00
13690;BME280;6917;52.194;9.894;2022-07-23T00:49:54;100662.41;;;15.18;100.00
13690;BME280;6917;52.194;9.894;2022-07-23T00:52:20;100666.06;;;15.10;100.00
13690;BME280;6917;52.194;9.894;2022-07-23T00:54:45;100669.34;;;15.04;100.00
13690;BME280;6917;52.194;9.894;2022-07-23T00:57:10;100663.13;;;14.95;100.00
13690;BME280;6917;52.194;9.894;2022-07-23T00:59:38;100660.06;;;14.87;100.00
13690;BME280;6917;52.194;9.894;2022-07-23T01:02:03;100668.53;;;14.82;100.00
13690;BME280;6917;52.194;9.894;2022-07-23T01:04:29;100662.56;;;14.80;100.00
13690;BME280;6917;52.194;9.894;2022-07-23T01:06:54;100665.66;;;14.79;100.00
13690;BME280;6917;52.194;9.894;2022-07-23T01:09:19;100669.09;;;14.76;100.00
13690;BME280;6917;52.194;9.894;2022-07-23T01:11:46;100661.47;;;14.73;100.00
13690;BME280;6917;52.194;9.894;2022-07-23T01:14:17;100651.44;;;14.77;100.00
13690;BME280;6917;52.194;9.894;2022-07-23T01:16:44;100639.88;;;14.83;100.00
13690;BME280;6917;52.194;9.894;2022-07-23T01:19:10;100629.81;;;14.67;100.00
13690;BME280;6917;52.194;9.894;2022-07-23T01:21:40;100640.88;;;14.58;100.00
13690;BME280;6917;52.194;9.894;2022-07-23T01:24:06;100643.50;;;14.75;100.00
13690;BME280;6917;52.194;9.894;2022-07-23T01:26:31;100637.72;;;14.89;100.00
13690;BME280;6917;52.194;9.894;2022-07-23T01:28:57;100630.09;;;14.95;100.00
13690;BME280;6917;52.194;9.894;2022-07-23T01:31:22;100618.53;;;15.01;100.00
13690;BME280;6917;52.194;9.894;2022-07-23T01:33:48;100621.91;;;15.07;100.00
13690;BME280;6917;52.194;9.894;2022-07-23T01:36:14;100612.28;;;15.13;100.00
13690;BME280;6917;52.194;9.894;2022-07-23T01:38:39;100613.56;;;15.15;100.00
13690;BME280;6917;52.194;9.894;2022-07-23T01:41:05;100618.38;;;15.18;100.00
13690;BME280;6917;52.194;9.894;2022-07-23T01:43:30;100620.28;;;15.06;100.00
13690;BME280;6917;52.194;9.894;2022-07-23T01:45:55;100630.38;;;14.81;100.00
13690;BME280;6917;52.194;9.894;2022-07-23T01:48:21;100619.16;;;14.65;100.00
13690;BME280;6917;52.194;9.894;2022-07-23T01:50:47;100612.03;;;14.64;100.00
13690;BME280;6917;52.194;9.894;2022-07-23T01:53:14;100607.41;;;14.56;100.00
13690;BME280;6917;52.194;9.894;2022-07-23T01:55:39;100609.72;;;14.45;100.00
13690;BME280;6917;52.194;9.894;2022-07-23T01:58:05;100621.94;;;14.27;100.00
13690;BME280;6917;52.194;9.894;2022-07-23T02:00:30;100611.66;;;14.15;100.00
13690;BME280;6917;52.194;9.894;2022-07-23T02:02:56;100602.31;;;14.08;100.00
13690;BME280;6917;52.194;9.894;2022-07-23T02:05:23;100619.78;;;14.03;100.00
13690;BME280;6917;52.194;9.894;2022-07-23T02:07:48;100618.09;;;13.90;100.00
13690;BME280;6917;52.194;9.894;2022-07-23T02:10:14;100632.66;;;13.82;100.00
13690;BME280;6917;52.194;9.894;2022-07-23T02:12:39;100632.16;;;13.80;100.00
13690;BME280;6917;52.194;9.894;2022-07-23T02:15:05;100630.84;;;13.86;100.00
13690;BME280;6917;52.194;9.894;2022-07-23T02:17:31;100623.06;;;13.88;100.00
13690;BME280;6917;52.194;9.894;2022-07-23T02:19:56;100616.28;;;13.94;100.00
13690;BME280;6917;52.194;9.894;2022-07-23T02:22:21;100604.31;;;13.98;100.00
13690;BME280;6917;52.194;9.894;2022-07-23T02:24:47;100625.47;;;13.98;100.00
13690;BME280;6917;52.194;9.894;2022-07-23T02:27:12;100621.91;;;13.97;100.00
13690;BME280;6917;52.194;9.894;2022-07-23T02:29:37;100614.63;;;14.02;100.00
13690;BME280;6917;52.194;9.894;2022-07-23T02:32:03;100620.28;;;14.05;100.00
13690;BME280;6917;52.194;9.894;2022-07-23T02:34:28;100619.47;;;14.05;100.00
13690;BME280;6917;52.194;9.894;2022-07-23T02:36:54;100611.25;;;14.05;100.00
13690;BME280;6917;52.194;9.894;2022-07-23T02:39:19;100621.91;;;14.06;100.00
13690;BME280;6917;52.194;9.894;2022-07-23T02:41:45;100633.34;;;14.08;100.00
13690;BME280;6917;52.194;9.894;2022-07-23T02:44:10;100634.16;;;14.09;100.00
13690;BME280;6917;52.194;9.894;2022-07-23T02:46:35;100640.47;;;14.09;100.00
13690;BME280;6917;52.194;9.894;2022-07-23T02:49:01;100628.81;;;14.12;100.00
13690;BME280;6917;52.194;9.894;2022-07-23T02:51:26;100625.38;;;14.15;100.00
13690;BME280;6917;52.194;9.894;2022-07-23T02:53:52;100625.84;;;14.17;100.00
13690;BME280;6917;52.194;9.894;2022-07-23T02:56:17;100620.06;;;14.19;100.00
13690;BME280;6917;52.194;9.894;2022-07-23T02:58:42;100620.88;;;14.19;100.00
13690;BME280;6917;52.194;9.894;2022-07-23T03:01:08;100622.59;;;14.24;100.00
13690;BME280;6917;52.194;9.894;2022-07-23T03:03:33;100613.34;;;14.28;100.00
13690;BME280;6917;52.194;9.894;2022-07-23T03:05:59;100613.53;;;14.32;100.00
13690;BME280;6917;52.194;9.894;2022-07-23T03:08:24;100624.03;;;14.30;100.00
13690;BME280;6917;52.194;9.894;2022-07-23T03:10:50;100619.66;;;14.29;100.00
13690;BME280;6917;52.194;9.894;2022-07-23T03:13:16;100623.22;;;14.29;100.00
13690;BME280;6917;52.194;9.894;2022-07-23T03:15:41;100625.31;;;14.33;100.00
13690;BME280;6917;52.194;9.894;2022-07-23T03:18:07;100618.53;;;14.30;100.00
13690;BME280;6917;52.194;9.894;2022-07-23T03:20:32;100619.97;;;14.36;100.00
13690;BME280;6917;52.194;9.894;2022-07-23T03:22:57;100611.72;;;14.36;100.00
13690;BME280;6917;52.194;9.894;2022-07-23T03:25:23;100611.38;;;14.38;100.00
13690;BME280;6917;52.194;9.894;2022-07-23T03:27:48;100610.09;;;14.35;100.00
13690;BME280;6917;52.194;9.894;2022-07-23T03:30:13;100612.69;;;14.32;100.00
13690;BME280;6917;52.194;9.894;2022-07-23T03:32:39;100609.94;;;14.32;100.00
13690;BME280;6917;52.194;9.894;2022-07-23T03:35:05;100605.41;;;14.36;100.00
13690;BME280;6917;52.194;9.894;2022-07-23T03:37:30;100594.41;;;14.36;100.00
13690;BME280;6917;52.194;9.894;2022-07-23T03:39:55;100592.00;;;14.34;100.00
13690;BME280;6917;52.194;9.894;2022-07-23T03:42:21;100604.13;;;14.33;100.00
13690;BME280;6917;52.194;9.894;2022-07-23T03:44:46;100597.97;;;14.36;100.00
13690;BME280;6917;52.194;9.894;2022-07-23T03:47:12;100591.00;;;14.39;100.00
13690;BME280;6917;52.194;9.894;2022-07-23T03:49:37;100596.38;;;14.35;100.00
13690;BME280;6917;52.194;9.894;2022-07-23T03:52:03;100582.16;;;14.33;100.00
13690;BME280;6917;52.194;9.894;2022-07-23T03:54:28;100580.53;;;14.32;100.00
13690;BME280;6917;52.194;9.894;2022-07-23T03:56:54;100592.84;;;14.26;100.00
13690;BME280;6917;52.194;9.894;2022-07-23T03:59:19;100593.53;;;14.23;100.00
13690;BME280;6917;52.194;9.894;2022-07-23T04:01:44;100609.06;;;14.19;100.00
13690;BME280;6917;52.194;9.894;2022-07-23T04:04:10;100601.78;;;14.14;100.00
13690;BME280;6917;52.194;9.894;2022-07-23T04:06:35;100598.44;;;14.09;100.00
13690;BME280;6917;52.194;9.894;2022-07-23T04:09:01;100593.41;;;14.11;100.00
13690;BME280;6917;52.194;9.894;2022-07-23T04:11:27;100602.28;;;14.16;100.00
13690;BME280;6917;52.194;9.894;2022-07-23T04:13:52;100591.91;;;14.22;100.00
13690;BME280;6917;52.194;9.894;2022-07-23T04:16:17;100583.81;;;14.25;100.00
13690;BME280;6917;52.194;9.894;2022-07-23T04:18:43;100589.28;;;14.25;100.00
13690;BME280;6917;52.194;9.894;2022-07-23T04:21:08;100588.63;;;14.28;100.00
13690;BME280;6917;52.194;9.894;2022-07-23T04:23:34;100598.13;;;14.31;100.00
13690;BME280;6917;52.194;9.894;2022-07-23T04:25:59;100599.56;;;14.37;100.00
13690;BME280;6917;52.194;9.894;2022-07-23T04:28:24;100586.78;;;14.41;100.00
13690;BME280;6917;52.194;9.894;2022-07-23T04:30:50;100580.94;;;14.43;100.00
13690;BME280;6917;52.194;9.894;2022-07-23T04:33:15;100587.44;;;14.47;100.00
13690;BME280;6917;52.194;9.894;2022-07-23T04:35:40;100584.94;;;14.54;100.00
13690;BME280;6917;52.194;9.894;2022-07-23T04:38:06;100596.53;;;14.59;100.00
13690;BME280;6917;52.194;9.894;2022-07-23T04:40:31;100612.91;;;14.56;100.00
13690;BME280;6917;52.194;9.894;2022-07-23T04:42:57;100608.22;;;14.56;100.00
13690;BME280;6917;52.194;9.894;2022-07-23T04:45:22;100623.09;;;14.55;100.00
13690;BME280;6917;52.194;9.894;2022-07-23T04:47:50;100626.19;;;14.54;100.00
13690;BME280;6917;52.194;9.894;2022-07-23T04:50:16;100621.81;;;14.53;100.00
13690;BME280;6917;52.194;9.894;2022-07-23T04:52:46;100616.78;;;14.55;100.00
13690;BME280;6917;52.194;9.894;2022-07-23T04:55:11;100617.59;;;14.55;100.00
13690;BME280;6917;52.194;9.894;2022-07-23T04:57:37;100628.00;;;14.50;100.00
13690;BME280;6917;52.194;9.894;2022-07-23T05:00:04;100622.97;;;14.43;100.00
13690;BME280;6917;52.194;9.894;2022-07-23T05:02:29;100632.56;;;14.37;100.00
13690;BME280;6917;52.194;9.894;2022-07-23T05:04:55;100625.16;;;14.29;100.00
13690;BME280;6917;52.194;9.894;2022-07-23T05:07:20;100631.19;;;14.22;100.00
13690;BME280;6917;52.194;9.894;2022-07-23T05:09:45;100622.47;;;14.20;100.00
13690;BME280;6917;52.194;9.894;2022-07-23T05:12:11;100622.31;;;14.17;100.00
13690;BME280;6917;52.194;9.894;2022-07-23T05:14:37;100621.50;;;14.16;100.00
13690;BME280;6917;52.194;9.894;2022-07-23T05:17:02;100628.13;;;14.15;100.00
13690;BME280;6917;52.194;9.894;2022-07-23T05:19:28;100617.63;;;14.17;100.00
13690;BME280;6917;52.194;9.894;2022-07-23T05:21:53;100627.16;;;14.20;100.00
13690;BME280;6917;52.194;9.894;2022-07-23T05:24:18;100622.47;;;14.20;100.00
13690;BME280;6917;52.194;9.894;2022-07-23T05:26:44;100626.63;;;14.26;100.00
13690;BME280;6917;52.194;9.894;2022-07-23T05:29:09;100620.28;;;14.35;100.00
13690;BME280;6917;52.194;9.894;2022-07-23T05:31:34;100622.16;;;14.43;100.00
13690;BME280;6917;52.194;9.894;2022-07-23T05:34:00;100620.09;;;14.48;100.00
13690;BME280;6917;52.194;9.894;2022-07-23T05:36:25;100624.19;;;14.63;100.00
13690;BME280;6917;52.194;9.894;2022-07-23T05:38:51;100619.22;;;14.77;100.00
13690;BME280;6917;52.194;9.894;2022-07-23T05:41:16;100631.63;;;14.83;100.00
13690;BME280;6917;52.194;9.894;2022-07-23T05:43:41;100630.44;;;14.93;100.00
13690;BME280;6917;52.194;9.894;2022-07-23T05:46:07;100627.81;;;14.97;100.00
13690;BME280;6917;52.194;9.894;2022-07-23T05:48:32;100628.50;;;14.94;100.00
13690;BME280;6917;52.194;9.894;2022-07-23T05:50:57;100635.31;;;14.87;100.00
13690;BME280;6917;52.194;9.894;2022-07-23T05:53:23;100632.09;;;14.85;100.00
13690;BME280;6917;52.194;9.894;2022-07-23T05:55:48;100633.38;;;14.88;100.00
13690;BME280;6917;52.194;9.894;2022-07-23T05:58:13;100634.84;;;14.85;100.00
13690;BME280;6917;52.194;9.894;2022-07-23T06:00:40;100639.22;;;14.86;100.00
13690;BME280;6917;52.194;9.894;2022-07-23T06:03:06;100632.72;;;14.91;100.00
13690;BME280;6917;52.194;9.894;2022-07-23T06:05:31;100641.09;;;14.95;100.00
13690;BME280;6917;52.194;9.894;2022-07-23T06:07:56;100643.19;;;14.98;100.00
13690;BME280;6917;52.194;9.894;2022-07-23T06:10:22;100648.88;;;15.13;100.00
13690;BME280;6917;52.194;9.894;2022-07-23T06:12:47;100638.94;;;15.21;100.00
13690;BME280;6917;52.194;9.894;2022-07-23T06:15:12;100651.00;;;15.29;100.00
13690;BME280;6917;52.194;9.894;2022-07-23T06:17:38;100647.09;;;15.30;100.00
13690;BME280;6917;52.194;9.894;2022-07-23T06:20:05;100652.06;;;15.36;100.00
13690;BME280;6917;52.194;9.894;2022-07-23T06:22:31;100653.47;;;15.42;100.00
13690;BME280;6917;52.194;9.894;2022-07-23T06:24:56;100648.41;;;15.44;100.00
13690;BME280;6917;52.194;9.894;2022-07-23T06:27:22;100647.88;;;15.51;100.00
13690;BME280;6917;52.194;9.894;2022-07-23T06:29:47;100647.31;;;15.58;100.00
13690;BME280;6917;52.194;9.894;2022-07-23T06:32:12;100646.22;;;15.71;100.00
13690;BME280;6917;52.194;9.894;2022-07-23T06:34:38;100646.72;;;15.85;100.00
13690;BME280;6917;52.194;9.894;2022-07-23T06:37:03;100655.56;;;15.91;95.95
13690;BME280;6917;52.194;9.894;2022-07-23T06:39:28;100657.28;;;15.83;92.58
13690;BME280;6917;52.194;9.894;2022-07-23T06:41:54;100654.66;;;15.87;93.07
13690;BME280;6917;52.194;9.894;2022-07-23T06:44:19;100668.69;;;15.94;94.81
13690;BME280;6917;52.194;9.894;2022-07-23T06:46:45;100664.19;;;15.89;92.68
13690;BME280;6917;52.194;9.894;2022-07-23T06:49:10;100666.94;;;16.01;94.04
13690;BME280;6917;52.194;9.894;2022-07-23T06:51:35;100668.34;;;16.08;92.94
13690;BME280;6917;52.194;9.894;2022-07-23T06:54:02;100667.31;;;16.12;92.15
13690;BME280;6917;52.194;9.894;2022-07-23T06:56:27;100675.94;;;16.23;92.08
13690;BME280;6917;52.194;9.894;2022-07-23T06:58:52;100681.13;;;16.24;91.41
13690;BME280;6917;52.194;9.894;2022-07-23T07:01:18;100678.00;;;16.26;91.84
13690;BME280;6917;52.194;9.894;2022-07-23T07:03:43;100683.75;;;16.33;91.41
13690;BME280;6917;52.194;9.894;2022-07-23T07:06:08;100676.75;;;16.35;90.64
13690;BME280;6917;52.194;9.894;2022-07-23T07:08:34;100676.97;;;16.43;89.91
13690;BME280;6917;52.194;9.894;2022-07-23T07:10:59;100675.59;;;16.49;88.21
13690;BME280;6917;52.194;9.894;2022-07-23T07:13:24;100680.28;;;16.60;88.31
13690;BME280;6917;52.194;9.894;2022-07-23T07:15:50;100684.44;;;16.66;87.43
13690;BME280;6917;52.194;9.894;2022-07-23T07:18:16;100684.13;;;16.80;87.92
13690;BME280;6917;52.194;9.894;2022-07-23T07:20:41;100696.50;;;16.86;86.72
13690;BME280;6917;52.194;9.894;2022-07-23T07:23:06;100694.09;;;16.97;85.54
13690;BME280;6917;52.194;9.894;2022-07-23T07:25:32;100689.34;;;17.10;85.03
13690;BME280;6917;52.194;9.894;2022-07-23T07:27:57;100695.22;;;17.08;83.97
13690;BME280;6917;52.194;9.894;2022-07-23T07:30:23;100695.88;;;17.17;83.90
13690;BME280;6917;52.194;9.894;2022-07-23T07:32:48;100703.13;;;17.22;82.80
13690;BME280;6917;52.194;9.894;2022-07-23T07:35:13;100690.06;;;17.35;83.29
13690;BME280;6917;52.194;9.894;2022-07-23T07:37:39;100694.13;;;17.53;80.93
13690;BME280;6917;52.194;9.894;2022-07-23T07:40:04;100703.81;;;17.47;78.61
13690;BME280;6917;52.194;9.894;2022-07-23T07:42:30;100699.91;;;17.48;78.33
13690;BME280;6917;52.194;9.894;2022-07-23T07:44:57;100699.25;;;17.67;79.65
13690;BME280;6917;52.194;9.894;2022-07-23T07:47:22;100700.72;;;17.76;77.87
13690;BME280;6917;52.194;9.894;2022-07-23T07:49:48;100707.81;;;18.05;76.55
13690;BME280;6917;52.194;9.894;2022-07-23T07:52:13;100717.97;;;18.01;75.38
13690;BME280;6917;52.194;9.894;2022-07-23T07:54:38;100717.25;;;17.89;74.44
13690;BME280;6917;52.194;9.894;2022-07-23T07:57:04;100717.25;;;17.89;73.90
13690;BME280;6917;52.194;9.894;2022-07-23T07:59:29;100719.50;;;17.99;75.58
13690;BME280;6917;52.194;9.894;2022-07-23T08:01:54;100712.97;;;18.07;74.76
13690;BME280;6917;52.194;9.894;2022-07-23T08:04:20;100708.53;;;18.18;73.15
13690;BME280;6917;52.194;9.894;2022-07-23T08:06:46;100708.28;;;18.23;72.50
13690;BME280;6917;52.194;9.894;2022-07-23T08:09:11;100716.41;;;18.32;73.55
13690;BME280;6917;52.194;9.894;2022-07-23T08:11:36;100724.53;;;18.40;72.23
13690;BME280;6917;52.194;9.894;2022-07-23T08:14:02;100720.69;;;18.45;72.23
13690;BME280;6917;52.194;9.894;2022-07-23T08:16:27;100725.50;;;18.64;72.69
13690;BME280;6917;52.194;9.894;2022-07-23T08:18:53;100727.66;;;18.55;72.46
13690;BME280;6917;52.194;9.894;2022-07-23T08:21:18;100734.06;;;18.27;71.74
13690;BME280;6917;52.194;9.894;2022-07-23T08:23:44;100730.50;;;18.11;72.92
13690;BME280;6917;52.194;9.894;2022-07-23T08:26:09;100724.97;;;18.27;73.38
13690;BME280;6917;52.194;9.894;2022-07-23T08:28:34;100723.00;;;18.59;73.25
13690;BME280;6917;52.194;9.894;2022-07-23T08:31:00;100727.44;;;18.79;72.64
13690;BME280;6917;52.194;9.894;2022-07-23T08:33:26;100725.94;;;18.82;71.58
13690;BME280;6917;52.194;9.894;2022-07-23T08:35:51;100723.38;;;18.73;70.37
13690;BME280;6917;52.194;9.894;2022-07-23T08:38:19;100728.72;;;18.66;71.11
13690;BME280;6917;52.194;9.894;2022-07-23T08:40:50;100739.00;;;18.81;70.86
13690;BME280;6917;52.194;9.894;2022-07-23T08:43:18;100735.09;;;19.01;69.04
13690;BME280;6917;52.194;9.894;2022-07-23T08:45:45;100741.63;;;18.93;67.64
13690;BME280;6917;52.194;9.894;2022-07-23T08:48:13;100740.59;;;18.82;69.46
13690;BME280;6917;52.194;9.894;2022-07-23T08:50:43;100738.44;;;18.76;68.42
13690;BME280;6917;52.194;9.894;2022-07-23T08:53:09;100726.78;;;19.01;68.84
13690;BME280;6917;52.194;9.894;2022-07-23T08:55:35;100733.00;;;19.14;67.95
13690;BME280;6917;52.194;9.894;2022-07-23T08:58:01;100741.72;;;18.97;68.20
13690;BME280;6917;52.194;9.894;2022-07-23T09:00:26;100736.00;;;18.90;69.23
13690;BME280;6917;52.194;9.894;2022-07-23T09:02:52;100737.22;;;19.08;68.64
13690;BME280;6917;52.194;9.894;2022-07-23T09:05:18;100737.88;;;19.21;68.98
13690;BME280;6917;52.194;9.894;2022-07-23T09:08:15;100730.97;;;19.11;66.51
13690;BME280;6917;52.194;9.894;2022-07-23T09:10:55;100727.97;;;19.20;65.83
13690;BME280;6917;52.194;9.894;2022-07-23T09:21:11;100732.94;;;19.30;66.37
13690;BME280;6917;52.194;9.894;2022-07-23T09:23:42;100730.41;;;19.41;65.81
13690;BME280;6917;52.194;9.894;2022-07-23T09:31:20;100740.75;;;19.24;66.09
13690;BME280;6917;52.194;9.894;2022-07-23T09:33:46;100738.69;;;19.21;66.05
13690;BME280;6917;52.194;9.894;2022-07-23T09:36:11;100738.06;;;19.28;65.95
13690;BME280;6917;52.194;9.894;2022-07-23T09:38:50;100739.13;;;19.58;66.42
13690;BME280;6917;52.194;9.894;2022-07-23T09:41:18;100730.44;;;20.02;64.24
13690;BME280;6917;52.194;9.894;2022-07-23T09:43:44;100745.56;;;20.05;62.91
13690;BME280;6917;52.194;9.894;2022-07-23T09:48:52;100741.25;;;19.49;63.11
13690;BME280;6917;52.194;9.894;2022-07-23T09:51:18;100735.84;;;19.37;63.13
13690;BME280;6917;52.194;9.894;2022-07-23T09:53:50;100734.06;;;19.45;62.76
13690;BME280;6917;52.194;9.894;2022-07-23T09:56:17;100724.44;;;19.77;63.56
13690;BME280;6917;52.194;9.894;2022-07-23T09:58:45;100736.06;;;20.06;63.13
13690;BME280;6917;52.194;9.894;2022-07-23T10:01:14;100730.50;;;19.83;63.35
13690;BME280;6917;52.194;9.894;2022-07-23T10:03:42;100718.50;;;19.79;64.01
13690;BME280;6917;52.194;9.894;2022-07-23T10:06:09;100724.97;;;19.83;64.74
13690;BME280;6917;52.194;9.894;2022-07-23T10:08:35;100732.53;;;19.86;64.65
13690;BME280;6917;52.194;9.894;2022-07-23T10:11:01;100727.44;;;20.11;64.17
13690;BME280;6917;52.194;9.894;2022-07-23T10:13:27;100725.53;;;20.15;63.27
13690;BME280;6917;52.194;9.894;2022-07-23T10:15:59;100721.78;;;20.49;62.26
13690;BME280;6917;52.194;9.894;2022-07-23T10:18:25;100731.88;;;20.38;60.73
13690;BME280;6917;52.194;9.894;2022-07-23T10:20:50;100735.09;;;20.17;61.64
13690;BME280;6917;52.194;9.894;2022-07-23T10:23:27;100733.13;;;20.18;62.03
13690;BME280;6917;52.194;9.894;2022-07-23T10:26:09;100733.59;;;20.24;61.75
13690;BME280;6917;52.194;9.894;2022-07-23T10:33:50;100737.28;;;20.77;59.33
13690;BME280;6917;52.194;9.894;2022-07-23T10:39:08;100732.75;;;20.65;60.54
13690;BME280;6917;52.194;9.894;2022-07-23T10:41:41;100731.38;;;21.05;58.96
13690;BME280;6917;52.194;9.894;2022-07-23T10:44:12;100738.19;;;21.11;58.37
13690;BME280;6917;52.194;9.894;2022-07-23T10:49:40;100741.78;;;20.85;59.29
13690;BME280;6917;52.194;9.894;2022-07-23T10:52:26;100738.63;;;20.87;58.66
13690;BME280;6917;52.194;9.894;2022-07-23T10:55:38;100736.81;;;20.71;58.35
13690;BME280;6917;52.194;9.894;2022-07-23T10:57:51;100732.09;;;20.49;59.33
13690;BME280;6917;52.194;9.894;2022-07-23T11:00:21;100723.66;;;20.42;59.48
13690;BME280;6917;52.194;9.894;2022-07-23T11:02:49;100728.16;;;20.76;60.23
13690;BME280;6917;52.194;9.894;2022-07-23T11:05:21;100732.44;;;20.70;59.63
13690;BME280;6917;52.194;9.894;2022-07-23T11:10:50;100724.75;;;20.87;58.92
13690;BME280;6917;52.194;9.894;2022-07-23T11:18:55;100730.31;;;20.87;58.09
13690;BME280;6917;52.194;9.894;2022-07-23T11:24:00;100731.59;;;21.23;57.70
13690;BME280;6917;52.194;9.894;2022-07-23T11:26:42;100723.47;;;21.37;56.40
13690;BME280;6917;52.194;9.894;2022-07-23T11:36:57;100721.00;;;21.02;58.30
13690;BME280;6917;52.194;9.894;2022-07-23T11:39:27;100720.22;;;20.75;58.41
13690;BME280;6917;52.194;9.894;2022-07-23T11:41:53;100719.66;;;20.92;58.17
13690;BME280;6917;52.194;9.894;2022-07-23T11:44:37;100715.25;;;20.88;59.13
13690;BME280;6917;52.194;9.894;2022-07-23T11:47:04;100717.81;;;21.00;58.65
13690;BME280;6917;52.194;9.894;2022-07-23T11:49:30;100717.25;;;21.17;57.65
13690;BME280;6917;52.194;9.894;2022-07-23T11:52:06;100722.03;;;21.47;57.70
13690;BME280;6917;52.194;9.894;2022-07-23T11:54:32;100723.09;;;21.38;57.21
13690;BME280;6917;52.194;9.894;2022-07-23T11:56:59;100725.84;;;21.35;57.75
13690;BME280;6917;52.194;9.894;2022-07-23T11:59:26;100712.16;;;21.23;57.32
13690;BME280;6917;52.194;9.894;2022-07-23T12:02:02;100720.00;;;21.44;57.07
13690;BME280;6917;52.194;9.894;2022-07-23T12:04:45;100730.19;;;21.66;55.86
13690;BME280;6917;52.194;9.894;2022-07-23T12:09:55;100731.38;;;21.65;55.78
13690;BME280;6917;52.194;9.894;2022-07-23T12:12:21;100722.22;;;21.31;56.81
13690;BME280;6917;52.194;9.894;2022-07-23T12:14:50;100713.63;;;21.13;57.83
13690;BME280;6917;52.194;9.894;2022-07-23T12:17:16;100727.06;;;21.11;57.88
13690;BME280;6917;52.194;9.894;2022-07-23T12:19:42;100723.09;;;21.38;57.58
13690;BME280;6917;52.194;9.894;2022-07-23T12:22:07;100727.00;;;21.64;57.21
13690;BME280;6917;52.194;9.894;2022-07-23T12:24:52;100722.78;;;21.77;55.70
13690;BME280;6917;52.194;9.894;2022-07-23T12:27:20;100717.16;;;21.70;55.30
13690;BME280;6917;52.194;9.894;2022-07-23T12:29:46;100720.25;;;21.65;54.78
13690;BME280;6917;52.194;9.894;2022-07-23T12:32:23;100711.22;;;21.75;55.48
13690;BME280;6917;52.194;9.894;2022-07-23T12:34:51;100711.38;;;21.89;54.51
13690;BME280;6917;52.194;9.894;2022-07-23T12:37:27;100719.22;;;22.14;55.11
13690;BME280;6917;52.194;9.894;2022-07-23T12:39:53;100726.97;;;22.38;53.89
13690;BME280;6917;52.194;9.894;2022-07-23T12:42:19;100721.09;;;22.47;52.82
13690;BME280;6917;52.194;9.894;2022-07-23T12:45:07;100719.94;;;22.07;53.13
13690;BME280;6917;52.194;9.894;2022-07-23T12:48:04;100714.94;;;21.86;54.37
13690;BME280;6917;52.194;9.894;2022-07-23T12:53:12;100718.63;;;22.42;53.78
13690;BME280;6917;52.194;9.894;2022-07-23T12:55:39;100737.56;;;22.70;52.08
13690;BME280;6917;52.194;9.894;2022-07-23T12:58:05;100724.19;;;22.38;52.71
13690;BME280;6917;52.194;9.894;2022-07-23T13:00:32;100720.66;;;22.01;53.06
13690;BME280;6917;52.194;9.894;2022-07-23T13:03:33;100727.69;;;21.91;54.13
13690;BME280;6917;52.194;9.894;2022-07-23T13:06:00;100725.94;;;22.13;53.65
13690;BME280;6917;52.194;9.894;2022-07-23T13:08:27;100724.69;;;22.51;53.33
13690;BME280;6917;52.194;9.894;2022-07-23T13:10:53;100723.69;;;22.77;51.98
13690;BME280;6917;52.194;9.894;2022-07-23T13:13:23;100725.84;;;22.94;52.79
13690;BME280;6917;52.194;9.894;2022-07-23T13:15:49;100733.78;;;22.89;50.88
13690;BME280;6917;52.194;9.894;2022-07-23T13:18:14;100717.13;;;23.03;51.51
13690;BME280;6917;52.194;9.894;2022-07-23T13:20:42;100718.75;;;23.11;51.43
13690;BME280;6917;52.194;9.894;2022-07-23T13:23:08;100725.28;;;23.40;51.46
13690;BME280;6917;52.194;9.894;2022-07-23T13:25:33;100730.09;;;23.50;50.86
13690;BME280;6917;52.194;9.894;2022-07-23T13:27:59;100724.22;;;23.59;49.81
13690;BME280;6917;52.194;9.894;2022-07-23T13:30:24;100721.28;;;23.37;49.93
13690;BME280;6917;52.194;9.894;2022-07-23T13:32:50;100732.91;;;23.54;49.28
13690;BME280;6917;52.194;9.894;2022-07-23T13:35:15;100726.06;;;23.37;49.51
13690;BME280;6917;52.194;9.894;2022-07-23T13:37:41;100727.59;;;23.24;49.81
13690;BME280;6917;52.194;9.894;2022-07-23T13:40:07;100728.06;;;23.40;50.08
13690;BME280;6917;52.194;9.894;2022-07-23T13:42:33;100729.41;;;23.71;50.52
13690;BME280;6917;52.194;9.894;2022-07-23T13:44:58;100723.84;;;23.74;49.23